Actual water levels and discharges of Elbe river

Guaranteed water level and forecast    Ústí nad Labem-Střekov

Guaranteed water level
180 cm
on 21.04.2024 more information
Forecast
175 cm
on 22.04.2024 06:00
Tendency
steady state
on 22.04.2024 tendency methodology
Assumption
170 cm
on 23.04.2024 06:00
(Source data ČHMÚ a Povodí Labe)

Děčín

Date and time (UTC) H (cm) Q (m³/s)
22. 4. 2024 04:30 157 177
22. 4. 2024 04:00 158 179
22. 4. 2024 03:00 159 181
22. 4. 2024 02:00 162 185
22. 4. 2024 01:00 166 192
22. 4. 2024 00:00 170 199
21. 4. 2024 23:00 176 209
21. 4. 2024 22:00 180 217
21. 4. 2024 21:00 181 219
21. 4. 2024 20:00 179 215
21. 4. 2024 19:00 172 202
21. 4. 2024 18:00 163 187
21. 4. 2024 17:00 159 181
21. 4. 2024 16:00 160 182

H - water level, Q - discharge

Ústí nad Labem

Date and time (UTC) H (cm) Q (m³/s)
22. 4. 2024 04:30 200 191
22. 4. 2024 04:00 191 174
22. 4. 2024 03:00 187 167
22. 4. 2024 02:00 187 167
22. 4. 2024 01:00 188 169
22. 4. 2024 00:00 188 169
21. 4. 2024 23:00 189 170
21. 4. 2024 22:00 190 172
21. 4. 2024 21:00 191 174
21. 4. 2024 20:00 198 187
21. 4. 2024 19:00 206 204
21. 4. 2024 18:00 208 208
21. 4. 2024 17:00 218 229
21. 4. 2024 16:00 217 227

H - water level, Q - discharge
more information

Mělník

Date and time (UTC) H (cm) Q (m³/s)
22. 4. 2024 04:30 269 -
22. 4. 2024 04:00 268 -
22. 4. 2024 03:00 267 -
22. 4. 2024 02:00 266 -
22. 4. 2024 01:00 265 -
22. 4. 2024 00:00 267 -
21. 4. 2024 23:00 268 -
21. 4. 2024 22:00 268 -
21. 4. 2024 21:00 268 -
21. 4. 2024 20:00 270 -
21. 4. 2024 19:00 273 -
21. 4. 2024 18:00 276 -
21. 4. 2024 17:00 261 -
21. 4. 2024 16:00 267 -

H - water level, Q - discharge
more information

Kostelec nad Labem

Date and time (UTC) H (cm) Q (m³/s)
22. 4. 2024 04:30 408 -
22. 4. 2024 04:00 408 -
22. 4. 2024 03:00 408 -
22. 4. 2024 02:00 408 -
22. 4. 2024 01:00 407 -
22. 4. 2024 00:00 407 -
21. 4. 2024 23:00 407 -
21. 4. 2024 22:00 408 -
21. 4. 2024 21:00 408 -
21. 4. 2024 20:00 409 -
21. 4. 2024 19:00 409 -
21. 4. 2024 18:00 409 -
21. 4. 2024 17:00 410 -
21. 4. 2024 16:00 407 -

H - water level, Q - discharge
more information

Přelouč

Date and time (UTC) H (cm) Q (m³/s)
22. 4. 2024 04:30 75 39.2
22. 4. 2024 04:00 75 39
22. 4. 2024 03:00 75 39
22. 4. 2024 02:00 75 39
22. 4. 2024 01:00 75 39
22. 4. 2024 00:00 75 39
21. 4. 2024 23:00 75 39
21. 4. 2024 22:00 76 40
21. 4. 2024 21:00 77 41
21. 4. 2024 20:00 77 41
21. 4. 2024 19:00 77 41
21. 4. 2024 18:00 78 42
21. 4. 2024 17:00 79 43
21. 4. 2024 16:00 79 43

H - water level, Q - discharge
more information

Němčice

Date and time (UTC) H (cm) Q (m³/s)
22. 4. 2024 04:30 112 32.5
22. 4. 2024 04:00 113 33
22. 4. 2024 03:00 113 33
22. 4. 2024 02:00 113 33
22. 4. 2024 01:00 113 33
22. 4. 2024 00:00 113 33
21. 4. 2024 23:00 114 34
21. 4. 2024 22:00 114 34
21. 4. 2024 21:00 115 34
21. 4. 2024 20:00 115 34
21. 4. 2024 19:00 115 34
21. 4. 2024 18:00 115 34
21. 4. 2024 17:00 116 35
21. 4. 2024 16:00 115 34

H - water level, Q - discharge
Source data
Labe Basin Vltava Basin Povodí Moravy ČHMÚ
Po vodě ekologicky, levně a v pohodě
backgroung on backgroung off